Sho Ito

Recruteur - Kashima Antlers
20 Févr 2028
Dimanche
Processus

Personnalité

Adaptabilité (15) Ambition (17) Controverse (8) Loyauté (18) Pression (5) Professionnalisme (9) Sportivité (1) Tempérament (19)

Profil

Style d'entraînement Démocratique
Diplôme National B
Détermination 6
Gestion des joueurs 4
Motivation 5
Discipline 11
Satisfaction professionnelle
100%
Fatigue
0%
Rôle Recruteur
Salaire 48.6K p/s
Contrat 14.03.2028

Performance

Comportement Bon
Efficacité de l'entraînement
49%
Développement des joueurs
30%
Prévention des blessures
65%
Mise en place tactique
50%

Événements récents

A recommandé une cible de transfert maintenant
A recommandé une cible de transfert maintenant
A participé à une réunion de recrutement maintenant
A recommandé une cible de transfert maintenant
Négociation de contrat entamée maintenant
A évalué un joueur maintenant
Négociation de contrat entamée maintenant
Négociation de contrat entamée maintenant

Suivi en cours

336
Joueur Club Statut Capacité Confiance Observé Dernière observation Dernier vote
Anton Stach Leeds United Actif 153 / 149 40% 1 15.02.2028 -
Exequiel Palacios Valencia Actif 161 / 165 40% 1 15.02.2028 -
Gustavo Martins Grêmio Perdu 128 / 132 40% 1 15.02.2028 -
Tatsuya Ito Kawasaki Frontale Rapport prêt 130 / 133 76% 1 31.01.2028 -
Kota Tawaratsumida Racing Genk Actif 133 / 136 66% 1 17.01.2028 Approuver
Yuto Ozeki Yokohama F. Marinos Actif 132 / 132 40% 4 05.01.2028 -
Breno Bidon Corinthians Actif 128 / 133 40% 2 05.01.2028 -
Kobbie Mainoo Leicester City Actif 157 / 162 40% 2 05.01.2028 -
Mao Hosoya Everton Négociation 134 / 135 67% 1 05.01.2028 -
Nicolás Fernández Mercau Independiente Actif 134 / 134 90% 1 05.01.2028 Approuver
Tojiro Kubo Kashiwa Reysol Actif 137 / 131 40% 2 04.01.2028 -
Zian Flemming Ipswich Town Actif 141 / 141 40% 8 04.01.2028 -
Callum O'Hare Sheffield United Actif 137 / 136 40% 4 04.01.2028 -
Erick Pulga Bahia Actif 129 / 127 40% 1 04.01.2028 -
Jayden Danns Wigan Athletic Actif 142 / 138 40% 1 04.01.2028 -
Manuel Ospina Cortulua Actif 138 / 132 40% 6 03.01.2028 -
Yota Komi Kashiwa Reysol Actif 123 / 128 40% 8 03.01.2028 Observer
Ferreirinha Sport Recife Actif 127 / 124 40% 6 03.01.2028 -
Borja Mayoral Getafe Actif 142 / 142 40% 3 03.01.2028 -
Luca Koleosho Paris FC Actif 137 / 135 40% 1 03.01.2028 -
Liam Delap Nottingham Forest Actif 148 / 157 40% 1 03.01.2028 -
Hirokazu Ishihara FC Tokyo Actif 135 / 137 40% 2 01.01.2028 -
Mateo Cassierra Atlético Mineiro Actif 135 / 130 40% 10 01.01.2028 -
Ez Abde Girona Actif 153 / 153 40% 2 01.01.2028 -
Kimito Nono Sanfrecce Hiroshima Actif 124 / 136 40% 1 01.01.2028 -
Johan Manzambi Newcastle United Actif 144 / 151 40% 5 31.12.2027 -
Cristian Graciano Junior Actif 112 / 117 40% 2 31.12.2027 -
Samuel Gidi FC Cincinnati Actif 118 / 127 40% 2 31.12.2027 -
Mateo Castillo Millonarios Actif 129 / 123 40% 2 31.12.2027 -
Danilo Boza Fluminense Actif 132 / 123 40% 2 31.12.2027 -
Alfredo Giraldo La Equidad Actif 133 / 134 40% 1 31.12.2027 -
Emmanuel Sabbi Vancouver Whitecaps Actif 127 / 120 40% 4 30.12.2027 -
Fábio Carvalho Sheffield Wednesday Actif 145 / 147 40% 2 30.12.2027 -
Toby Collyer West Bromwich Albion Actif 138 / 144 40% 1 29.12.2027 -
Jalen Neal CF Montreal Actif 130 / 120 40% 1 29.12.2027 -
Tetsushi Yamakawa Vissel Kobe Actif 128 / 128 40% 1 29.12.2027 -
Gustavo Marques Bragantino Actif 131 / 136 40% 1 29.12.2027 -
Matheus Bidu Corinthians Actif 128 / 131 40% 1 29.12.2027 -
Dejan Joveljić Seattle Sounders Actif 125 / 136 40% 4 27.12.2027 -
Riku Yamane Yokohama F. Marinos Actif 142 / 143 40% 4 27.12.2027 -
Yusuke Matsuo Esteghlal Actif 132 / 136 40% 2 27.12.2027 -
Ian Garguez Palestino Actif 108 / 113 40% 1 27.12.2027 -
Martín Ojeda Orlando City Actif 135 / 137 40% 7 26.12.2027 -
Breel Embolo Atlanta United FC Actif 135 / 134 40% 2 26.12.2027 -
Claudio Spinelli Vasco da Gama Actif 126 / 121 40% 3 25.12.2027 -
Negueba Mirassol Actif 131 / 126 40% 6 25.12.2027 -
Antony Alonso Deportivo Riestra Actif 118 / 123 40% 3 24.12.2027 -
Luciano Cosentino Wanderers Actif 119 / 123 40% 6 24.12.2027 -
Luca Langoni Colorado Rapids Actif 133 / 139 40% 3 24.12.2027 -
Sere Matsumura Shonan Bellmare Actif 122 / 115 40% 1 24.12.2027 -
Yusi Alavés Actif 132 / 137 40% 1 24.12.2027 -
Rodrigo Chagas Juventud Actif 117 / 121 40% 2 23.12.2027 -
Kévin Denkey FC Cincinnati Actif 123 / 125 40% 5 23.12.2027 -
Tomás Porra Barracas Central Actif 114 / 122 40% 4 23.12.2027 -
Alejo Veliz Bahia Actif 141 / 131 40% 2 23.12.2027 -
Samuel Lucero Defensa y Justicia Actif 119 / 128 40% 1 23.12.2027 -
Miguel Rodríguez Alavés Actif 139 / 134 40% 1 23.12.2027 -
Cheikh Sabaly Vancouver Whitecaps Actif 117 / 129 40% 8 22.12.2027 -
Wessam Abou Ali Columbus Crew Actif 134 / 123 40% 1 22.12.2027 -
José Hurtado Bragantino Actif 128 / 127 40% 1 22.12.2027 -
Shinnosuke Nakatani Gamba Osaka Actif 124 / 135 40% 1 22.12.2027 -
Gabriel Díaz Patronato Actif 109 / 111 40% 3 21.12.2027 -
Tobías Leiva Estudiantes Actif 116 / 122 40% 1 21.12.2027 -
Ivar Jenner Dewa United Actif 105 / 112 40% 1 21.12.2027 -
Jefry Zapata Danubio Actif 122 / 116 40% 2 20.12.2027 -
Brandon Vázquez Austin FC Actif 127 / 122 40% 3 20.12.2027 -
Asahi Uenaka Gamba Osaka Actif 126 / 121 65% 6 19.12.2027 Approuver
Erison Kawasaki Frontale Actif 127 / 134 40% 4 19.12.2027 -
Fabrício Bruno Cruzeiro Actif 137 / 133 40% 1 19.12.2027 -
Hayato Araki Sanfrecce Hiroshima Actif 131 / 130 40% 1 19.12.2027 -
Arthur Santos Actif 143 / 133 40% 1 19.12.2027 -
Igor Jesus Los Angeles Football Club Actif 123 / 119 40% 2 18.12.2027 -
Peter Langhoff Djurgarden Actif 116 / 121 40% 1 18.12.2027 -
Adnan Courtois KV Oostende Actif 148 / 142 40% 4 17.12.2027 -
Tadeo Allende Inter Miami CF Actif 121 / 122 40% 5 17.12.2027 -
Koki Ogawa Jubilo Iwata Actif 124 / 117 40% 1 17.12.2027 -
Youssef En-Nesyri Al-Ittihad Actif 144 / 154 40% 1 17.12.2027 -
Alexander Díaz Deportivo Riestra Actif 128 / 116 40% 4 16.12.2027 -
Bruno Gomes Internacional Actif 133 / 128 40% 1 16.12.2027 -
Renan Lodi Atlético Mineiro Actif 140 / 135 40% 1 16.12.2027 -
Asahi Sasaki Kawasaki Frontale Actif 132 / 133 40% 1 16.12.2027 -
Mbekezeli Mbokazi Chicago Fire Actif 126 / 131 40% 8 15.12.2027 -
Brooke Norton-Cuffy Inter Miami CF Actif 131 / 133 40% 2 15.12.2027 -
Philippe Ndinga Philadelphia Union Actif 118 / 125 40% 4 14.12.2027 -
Arthur Cabral Botafogo Actif 137 / 131 40% 2 14.12.2027 -
Femi Seriki Sheffield United Actif 131 / 138 40% 1 14.12.2027 -
Agustín Anello Philadelphia Union Actif 131 / 124 40% 6 13.12.2027 -
Juan Pablo Córdoba Gimnasia y Esgrima Actif 112 / 114 40% 2 13.12.2027 -
Maizon Rodríguez Unión de Santa Fe Actif 123 / 120 40% 1 13.12.2027 -
Ignacio Perruzzi San Lorenzo Actif 133 / 132 40% 1 13.12.2027 -
Teboho Mokoena Independiente Actif 142 / 131 40% 1 12.12.2027 -
Axel Frugone Defensor Sporting Actif 120 / 120 40% 1 12.12.2027 -
Fredrik Sjøvold Bodo/Glimt Actif 136 / 133 40% 1 12.12.2027 -
Andrés Ferrari Sint-Truiden Actif 120 / 125 40% 1 12.12.2027 -
John Kennedy Fluminense Actif 125 / 131 40% 1 11.12.2027 -
João Klauss LA Galaxy Actif 136 / 122 40% 1 11.12.2027 -
Iván Romero Levante Actif 138 / 142 40% 1 10.12.2027 -
Ruben van Bommel Ferencvaros Actif 133 / 139 40% 2 09.12.2027 -
Braian Aranda Agropecuario Argentino Actif 117 / 114 40% 4 09.12.2027 -
Duncan McGuire Houston Dynamo Actif 125 / 126 40% 6 09.12.2027 -
Leonardo Campana New England Revolution Actif 120 / 131 40% 1 09.12.2027 -
Lucas Villalba Botafogo Actif 125 / 122 40% 1 09.12.2027 -
Yuta Goke Vissel Kobe Actif 116 / 129 40% 4 08.12.2027 -
Gonzalo Fulham Actif 147 / 151 40% 5 06.12.2027 -
Armindo Sieb Los Angeles Football Club Actif 131 / 130 40% 9 06.12.2027 -
Luca Martínez Dupuy Godoy Cruz Actif 124 / 125 40% 4 06.12.2027 -
Levi Garcia Spartak Moscow Actif 144 / 128 40% 2 06.12.2027 -
Williams Manyama SuperSport United Actif 123 / 128 40% 2 05.12.2027 -
Fernando Álvarez Deportivo Cali Actif 114 / 113 40% 2 05.12.2027 -
Alan Velasco Boca Juniors Actif 134 / 133 40% 6 05.12.2027 -
Sead Hakšabanović Malmo FF Actif 127 / 120 40% 4 02.12.2027 -
Alejo Cruz Juventud Actif 127 / 124 40% 1 01.12.2027 -
Nicolás Romero Minnesota United FC Actif 133 / 125 40% 1 27.11.2027 -
Mateo Mendoza Godoy Cruz Actif 135 / 129 40% 1 27.11.2027 -
Ralph Orquin Seattle Sounders Actif 129 / 123 40% 1 24.11.2027 -
Edwuin Cetré Estudiantes Actif 129 / 128 40% 2 22.11.2027 -
Sam Surridge Nashville SC Actif 124 / 124 40% 1 22.11.2027 -
Mutsuki Kato Sanfrecce Hiroshima Actif 138 / 131 40% 6 21.11.2027 -
Alexis Cuello San Lorenzo Actif 125 / 125 40% 2 21.11.2027 -
Rafael Navarro St. Louis CITY SC Actif 118 / 131 40% 3 20.11.2027 -
Bénie Traoré New York City Actif 130 / 121 40% 3 20.11.2027 -
Alejandro Piedrahita Tigres Actif 124 / 125 40% 1 20.11.2027 -
Daiya Tono Yokohama F. Marinos Actif 124 / 128 40% 5 19.11.2027 -
Tomás Jacob Atlanta United FC Actif 124 / 125 40% 2 19.11.2027 -
Valentin Vidal Union Espanola Actif 110 / 110 40% 1 19.11.2027 -
Morgan Guilavogui Real Salt Lake Actif 137 / 122 40% 3 16.11.2027 -
Diego García Malmo FF Actif 125 / 123 40% 3 15.11.2027 -
Tomás Chancalay Minnesota United FC Actif 125 / 118 40% 2 12.11.2027 -
Paulos Abraham Hammarby Actif 121 / 122 40% 3 11.11.2027 -
Mathias Tønnessen Tromso Actif 115 / 114 40% 1 10.11.2027 -
Justo Giani Universidad Catolica Actif 129 / 119 40% 2 05.11.2027 -
Daniel Herrera San Lorenzo Actif 115 / 125 40% 1 03.11.2027 -
Noah Persson Hammarby Actif 130 / 129 40% 1 03.11.2027 -
Nəriman Axundzadə Columbus Crew Actif 128 / 119 40% 2 30.10.2027 -
Jonatan Torres Cerro Porteno Actif 125 / 123 40% 3 21.10.2027 -
Kerwin Vargas Seattle Sounders Actif 117 / 126 40% 3 20.10.2027 -
Santiago González Tigre Actif 127 / 127 40% 2 17.10.2027 -
Morrison Agyemang Charlotte Football Club Actif 127 / 113 40% 1 14.10.2027 -
Josh Sargent Toronto FC Actif 139 / 130 40% 4 11.10.2027 -
Sondre Auklend Bodo/Glimt Actif 120 / 138 40% 1 30.09.2027 -
Joel Poiso Penarol Actif 107 / 119 40% 1 29.09.2027 -
Hayato Tanaka Kashiwa Reysol Actif 120 / 126 40% 1 29.09.2027 -
Valentín Serrano Arsenal Actif 106 / 109 40% 1 26.09.2027 -
Max Fenger IFK Goteborg Actif 120 / 125 40% 2 21.09.2027 -
Ilay Feingold New England Revolution Actif 117 / 114 40% 1 19.09.2027 -
Federico Girotti Alianza Lima Actif 122 / 125 40% 1 16.09.2027 -
Maurice Malone Minnesota United FC Actif 116 / 131 40% 1 12.09.2027 -
Alexander Aravena Portland Timbers Actif 134 / 135 40% 1 11.09.2027 -
José Mercado Union Magdalena Actif 114 / 111 40% 1 08.09.2027 -
Jhojan Torres Santa Fe Actif 118 / 124 40% 1 08.09.2027 -
Hijiri Kato Omiya Ardija Perdu 127 / 127 69% 1 24.07.2027 Approuver
Ryoya Yamashita Gamba Osaka Actif 136 / 122 69% 1 23.07.2027 Approuver
Pedro de la Vega FC Dallas Actif 133 / 134 66% 1 22.07.2027 Approuver
Keinan Davis Udinese Actif 138 / 132 40% 3 21.07.2027 -
Riley Owen Trento Actif 106 / 110 40% 3 21.07.2027 -
Ahmed Kutucu Konyaspor Actif 119 / 133 40% 2 21.07.2027 -
Simón Pinto Palestino Actif 99 / 101 40% 1 21.07.2027 -
Tiago Freitas Benfica Actif 111 / 118 40% 3 20.07.2027 -
Andrea Pinamonti Lazio Actif 148 / 139 40% 8 20.07.2027 -
Martim Cunha Porto Actif 108 / 111 40% 2 20.07.2027 -
Sam Bell Bristol City Actif 123 / 124 40% 1 20.07.2027 -
Elijah Adebayo Luton Town Actif 128 / 126 40% 5 19.07.2027 -
Ilyas Ansah Hull City Actif 136 / 139 40% 4 19.07.2027 -
Dom Ballard Leyton Orient Actif 128 / 123 40% 3 19.07.2027 -
Will Lankshear Middlesbrough Actif 124 / 128 40% 10 18.07.2027 -
Zane Albarus Cambridge United Actif 93 / 108 40% 2 18.07.2027 -
Eddy Kouadio Crotone Actif 107 / 107 40% 1 18.07.2027 -
Tyrese Campbell Sheffield United Actif 138 / 124 40% 7 17.07.2027 -
Soungoutou Magassa West Ham United Actif 134 / 137 40% 3 17.07.2027 -
Kane Wilson Milton Keynes Dons Actif 113 / 111 40% 2 17.07.2027 -
Nobel Mendy Hull City Actif 133 / 140 40% 1 17.07.2027 -
Daniel Vernattus Metalist Actif 96 / 90 40% 2 16.07.2027 -
Cheveyo Tsawa Club Brugge Actif 119 / 125 40% 1 16.07.2027 -
Gonçalo Oliveira Benfica Actif 116 / 118 40% 3 15.07.2027 -
Zeki Amdouni Burnley Actif 135 / 139 40% 3 14.07.2027 -
Armando Broja Burnley Actif 141 / 136 40% 2 14.07.2027 -
Stefanos Tzimas Brighton Actif 144 / 146 40% 1 14.07.2027 -
Patson Daka Leicester City Actif 126 / 124 40% 7 13.07.2027 -
Caleb Yirenkyi Coventry City Actif 135 / 148 40% 4 13.07.2027 -
Darlin Yongwa Norwich City Actif 134 / 130 40% 3 12.07.2027 -
Jens Odgaard Bologna Actif 141 / 136 40% 4 12.07.2027 -
Dylan Lawlor Cardiff City Actif 119 / 125 40% 3 12.07.2027 -
Cristian Shpendi Cesena Actif 133 / 136 40% 1 12.07.2027 -
Alpha Touré FC Metz Actif 112 / 129 40% 1 12.07.2027 -
Tobias Slotsager Casertana Actif 115 / 116 40% 1 12.07.2027 -
Bosun Lawal Stoke City Actif 134 / 125 40% 1 12.07.2027 -
Josh Edwards Charlton Athletic Actif 120 / 129 40% 1 12.07.2027 -
Ethan Pye Stockport County Actif 119 / 119 40% 3 10.07.2027 -
Barış Alper Yılmaz Galatasaray Actif 147 / 157 40% 2 10.07.2027 -
Bobby Thomas Coventry City Actif 132 / 137 40% 1 10.07.2027 -
Archie Collins Peterborough United Actif 123 / 116 40% 1 10.07.2027 -
Rivaldo Grobler Free State Stars Actif 99 / 103 40% 1 09.07.2027 -
Lucas Høgsberg RC Strasbourg Actif 138 / 142 40% 1 09.07.2027 -
Aidomo Emakhu Oxford United Actif 130 / 127 40% 1 07.07.2027 -
Karlan Grant West Bromwich Albion Actif 125 / 119 40% 1 07.07.2027 -
Santiago Pierotti Lecce Actif 138 / 131 40% 1 07.07.2027 -
Matteo Rover Reggiana Actif 118 / 115 40% 1 06.07.2027 -
Alfie Doughty Millwall Actif 131 / 129 40% 2 05.07.2027 -
Pablo Felipe West Ham United Actif 143 / 141 40% 3 05.07.2027 -
Lewis Morgan SuperSport United Actif 126 / 117 40% 4 05.07.2027 -
Tom Cannon Sheffield United Actif 127 / 134 40% 4 03.07.2027 -
Yousef Salech Cardiff City Actif 129 / 131 40% 2 03.07.2027 -
Oh Hyeon-Gyu Besiktas Actif 114 / 134 40% 2 02.07.2027 -
Nicolò Zaniolo Udinese Actif 152 / 138 40% 3 01.07.2027 -
Lorent Tolaj Plymouth Argyle Actif 119 / 117 40% 2 30.06.2027 -
Dwight McNeil Crystal Palace Actif 146 / 140 40% 1 30.06.2027 -
Cameron Archer Southampton Actif 136 / 124 40% 6 29.06.2027 -
Leo Castledine Middlesbrough Actif 127 / 137 40% 3 29.06.2027 -
Jofre Torrents Ajax Actif 132 / 129 40% 2 29.06.2027 -
Daniel Kelly Oxford United Actif 111 / 126 40% 1 29.06.2027 -
Moussa Dembélé CR Belouizdad Actif 122 / 137 40% 4 28.06.2027 -
Che Adams Torino Actif 150 / 144 40% 4 27.06.2027 -
Richard Koné Queens Park Rangers Actif 130 / 128 40% 1 27.06.2027 -
Davide Bartesaghi AC Milan Actif 136 / 138 40% 3 25.06.2027 -
Sebastián Ramírez Jaguares Actif 103 / 117 40% 2 25.06.2027 -
Joe Gelhardt Hull City Actif 132 / 130 40% 2 24.06.2027 -
Romelu Castagne KV Oostende Actif 135 / 143 40% 1 24.06.2027 -
Ross Stewart Southampton Actif 133 / 131 40% 3 23.06.2027 -
Aune Heggebø West Bromwich Albion Actif 136 / 132 40% 4 22.06.2027 -
Matvey Kislyak CSKA Moscow Actif 132 / 147 40% 4 22.06.2027 -
Joel McGregor Swindon Town Actif 87 / 95 40% 5 22.06.2027 -
Tommy Conway Middlesbrough Actif 138 / 126 40% 2 21.06.2027 -
Christ Inao Oulaï Fiorentina Actif 138 / 137 40% 1 21.06.2027 -
Petar Musa Adana Demirspor Actif 148 / 134 40% 6 18.06.2027 -
Sascha Britschgi Padova Actif 117 / 130 40% 4 18.06.2027 -
Joel Ezra Enyimba Actif 97 / 94 40% 1 18.06.2027 -
Adam Wharton Crystal Palace Actif 150 / 150 40% 1 16.06.2027 -
Hayden Carter Blackburn Rovers Actif 129 / 126 40% 1 16.06.2027 -
Nathan Collins Brentford Actif 147 / 146 40% 1 16.06.2027 -
Jan Bürger Gillingham Actif 113 / 124 40% 4 15.06.2027 -
Kazunari Kita Real Sociedad Actif 92 / 108 40% 1 15.06.2027 -
Christos Mouzakitis Hull City Actif 131 / 135 40% 7 14.06.2027 -
Kristoffer Lund Birmingham Actif 128 / 135 40% 2 14.06.2027 -
Ilario Monterisi Frosinone Actif 133 / 130 40% 1 14.06.2027 -
Nikola Vlašić Torino Actif 148 / 147 40% 1 10.06.2027 -
Leandro Martins Benfica Actif 95 / 99 40% 3 09.06.2027 -
Morgan Whittaker Middlesbrough Actif 131 / 132 40% 4 08.06.2027 -
Rey Manaj Sivasspor Actif 121 / 128 40% 2 08.06.2027 -
Florentino Luís Ipswich Town Actif 145 / 140 40% 4 07.06.2027 -
Pedro Porro Tottenham Actif 156 / 147 40% 1 07.06.2027 -
Nicolò Tresoldi Club Brugge Actif 127 / 134 40% 3 05.06.2027 -
Yoane Wissa Newcastle United Actif 138 / 143 40% 1 04.06.2027 -
Pelle Mattsson Norwich City Actif 131 / 129 40% 1 04.06.2027 -
Finley McAllister Grimsby Town Actif 97 / 95 40% 2 03.06.2027 -
Harry Clarke Preston Actif 136 / 126 40% 1 30.05.2027 -
Mirko Topić Norwich City Actif 117 / 115 40% 2 29.05.2027 -
Daniel Tonoli Modena Actif 117 / 127 40% 2 29.05.2027 -
Luis Vázquez Birmingham Actif 129 / 125 40% 2 28.05.2027 -
Jacob Greaves Ipswich Town Actif 135 / 136 40% 2 27.05.2027 -
James Morris Leyton Orient Actif 121 / 118 40% 1 27.05.2027 -
Harvey White Stevenage Actif 124 / 112 40% 1 27.05.2027 -
Nuno Tavares Lazio Actif 147 / 141 40% 1 26.05.2027 -
Jack Currie Oxford United Actif 117 / 123 40% 1 26.05.2027 -
Edoardo Bove Watford Actif 125 / 134 40% 1 26.05.2027 -
Noah Sadiki Sunderland Actif 137 / 149 40% 4 25.05.2027 -
Lewis Ferguson Bologna Actif 146 / 145 40% 3 24.05.2027 -
Zak Swanson Bradford City Actif 120 / 119 40% 2 24.05.2027 -
Derry Murkin Derby County Actif 127 / 132 40% 1 24.05.2027 -
Kerem Aktürkoğlu Fenerbahce Actif 154 / 143 40% 6 23.05.2027 -
Keagan Phiri Platinum Stars Actif 110 / 108 40% 2 20.05.2027 -
Hamish Douglas Grimsby Town Actif 98 / 99 40% 2 17.05.2027 -
Keagan Tau Ajax Cape Town Actif 101 / 108 40% 1 16.05.2027 -
Luke McNally Bristol City Actif 126 / 133 40% 2 15.05.2027 -
Callum Doyle Wrexham Actif 134 / 129 40% 1 15.05.2027 -
Dávid Strelec Middlesbrough Actif 142 / 142 40% 1 13.05.2027 -
Matías Gómez Granada Actif 113 / 117 40% 2 12.05.2027 -
Shea Charles Southampton Actif 138 / 132 40% 2 11.05.2027 -
Wilson Isidor Sunderland Actif 130 / 137 40% 3 11.05.2027 -
Dany Mota Monza Actif 139 / 133 40% 1 09.05.2027 -
Taras Mykhavko Dynamo Kyiv Actif 132 / 115 40% 1 05.05.2027 -
Konan N'Dri Lecce Actif 121 / 131 40% 1 05.05.2027 -
Mateo Pellegrino Fiorentina Actif 139 / 142 40% 1 02.05.2027 -
Oli McBurnie Hull City Actif 134 / 140 40% 3 01.05.2027 -
Adriano Bertaccini Anderlecht Actif 134 / 124 40% 1 30.04.2027 -
Bali Mumba Huddersfield Town Actif 109 / 114 40% 1 30.04.2027 -
Percy Jali Free State Stars Actif 84 / 100 40% 1 29.04.2027 -
Will Fish Cardiff City Actif 118 / 124 40% 1 25.04.2027 -
Lucas Da Cunha Como Actif 146 / 139 40% 1 25.04.2027 -
Welington Southampton Actif 131 / 136 40% 4 20.04.2027 -
Habib Diarra Sunderland Actif 141 / 137 40% 2 20.04.2027 -
Tiago Djaló Besiktas Actif 127 / 135 40% 1 20.04.2027 -
Darryl Bakola Padova Actif 108 / 114 40% 1 18.04.2027 -
Willem Geubbels Lecce Actif 132 / 136 40% 1 13.04.2027 -
Juan Mosquera Sheffield Wednesday Actif 133 / 121 40% 2 09.04.2027 -
Max Bird Birmingham Actif 139 / 135 40% 1 09.04.2027 -
Ernie Weaver AFC Wimbledon Actif 103 / 124 40% 1 09.04.2027 -
Adam Bakoune Ospitaletto Actif 105 / 105 40% 1 09.04.2027 -
Eduardo Felicíssimo Sporting CP Actif 100 / 109 40% 1 07.04.2027 -
Mandla Erasmus SuperSport United Actif 129 / 112 40% 2 06.04.2027 -
Luka Jović AEK Actif 148 / 135 40% 1 06.04.2027 -
Keane Lewis-Potter Brentford Actif 146 / 139 40% 1 04.04.2027 -
Lewis Bate Stockport County Actif 115 / 128 40% 1 01.04.2027 -
Jacques Ekomié Wrexham Actif 137 / 132 40% 1 01.04.2027 -
Ethan Galbraith Swansea City Actif 133 / 140 40% 1 01.04.2027 -
Emmanuel Boateng Hapoel Tel Aviv Actif 131 / 128 40% 1 30.03.2027 -
Noah Okafor Leeds United Actif 144 / 141 40% 1 30.03.2027 -
Bamba Dieng Crvena Zvezda Actif 119 / 140 40% 1 26.03.2027 -
Ilay Camara Anderlecht Actif 133 / 136 40% 1 23.03.2027 -
Mattéo Guendouzi Fenerbahce Actif 152 / 147 40% 1 21.03.2027 -
Michael Kayode Brentford Actif 156 / 156 40% 1 21.03.2027 -
Luciano Gondou CSKA Moscow Actif 144 / 140 40% 1 19.03.2027 -
Sondre Langås Derby County Actif 131 / 120 40% 1 19.03.2027 -
Leif Davis Ipswich Town Actif 143 / 132 40% 1 04.01.2027 -
Jordan Beyer Burnley Actif 143 / 129 40% 1 02.01.2027 -
Ronnie Edwards Queens Park Rangers Actif 127 / 123 40% 1 02.01.2027 -
Tom Fellows Southampton Actif 129 / 136 40% 2 29.12.2026 -
Lukáš Červ Viktoria Plzen Actif 134 / 124 40% 1 27.12.2026 -
Jack McGlynn Stoke City Actif 125 / 122 40% 1 25.12.2026 -
Scott Twine Bristol City Actif 132 / 131 40% 1 24.12.2026 -
Ben Ahmed Kohili Paradou Actif 94 / 116 40% 1 23.12.2026 -
Gustavo Mantuan Zenit Actif 122 / 135 40% 1 23.12.2026 -
Finn Azaz Southampton Actif 124 / 119 40% 2 21.12.2026 -
Sayed Abu Farchi Maccabi Tel Aviv Actif 121 / 126 40% 1 20.12.2026 -
Leon Grgić Sturm Graz Actif 116 / 138 40% 1 18.12.2026 -
Marquinhos Spartak Moscow Actif 145 / 141 40% 1 17.12.2026 -
Isaac Price West Bromwich Albion Actif 124 / 119 40% 1 16.12.2026 -
Iwan Morgan Grimsby Town Actif 114 / 107 40% 1 15.12.2026 -
Mateus Mané Manchester United Actif 133 / 146 40% 1 15.12.2026 -
Jack Rudoni Coventry City Actif 141 / 142 40% 2 13.12.2026 -
Suleiman Camara Slovan Bratislava Actif 131 / 130 40% 1 13.12.2026 -
Danil Glebov Dinamo Moscow Actif 132 / 119 40% 2 11.12.2026 -
Alagie Wally Veres Actif 98 / 97 40% 1 09.12.2026 -
Ante Brekalo Zadar Actif 109 / 123 40% 1 09.12.2026 -
Eric Meza Estudiantes Actif 119 / 128 40% 1 21.11.2026 -
Bryan Ramírez FC Cincinnati Actif 126 / 113 40% 1 19.11.2026 -
Antonios Papadopoulos Lugano Actif 123 / 136 40% 1 12.11.2026 -
Shuto Nakano Sanfrecce Hiroshima Actif 134 / 134 40% 1 12.11.2026 -
Vicente Poggi Godoy Cruz Actif 125 / 115 40% 1 08.11.2026 -
César Ibáñez Huracán Actif 121 / 126 40% 1 08.11.2026 -
Rodrigo Huescas FC Copenhagen Actif 144 / 118 40% 1 08.11.2026 -
Karel Spáčil Viktoria Plzen Actif 126 / 143 40% 2 06.11.2026 -
Sota Miura Kawasaki Frontale Actif 126 / 131 40% 1 06.11.2026 -
Leandro Lozano Boca Juniors Actif 133 / 115 40% 1 06.11.2026 -
Ezekiel Kwame Alladoh Philadelphia Union Actif 125 / 127 40% 1 09.09.2026 -
Youssoufa Moukoko FC Copenhagen Actif 119 / 138 40% 1 07.09.2026 -
Kosei Suwama Yokohama F. Marinos Actif 116 / 98 62% 1 17.08.2026 Approuver